sensor_id;sensor_type;location;lat;lon;timestamp;P1;durP1;ratioP1;P2;durP2;ratioP2
35326;SDS011;21436;52.348;20.928;2022-10-17T00:01:09;41.20;;;23.98;;
35326;SDS011;21436;52.348;20.928;2022-10-17T00:03:38;43.80;;;25.20;;
35326;SDS011;21436;52.348;20.928;2022-10-17T00:06:08;36.72;;;21.83;;
35326;SDS011;21436;52.348;20.928;2022-10-17T00:08:38;41.38;;;21.98;;
35326;SDS011;21436;52.348;20.928;2022-10-17T00:11:08;39.50;;;24.15;;
35326;SDS011;21436;52.348;20.928;2022-10-17T00:13:41;41.72;;;22.70;;
35326;SDS011;21436;52.348;20.928;2022-10-17T00:16:09;41.55;;;23.85;;
35326;SDS011;21436;52.348;20.928;2022-10-17T00:18:37;42.85;;;23.27;;
35326;SDS011;21436;52.348;20.928;2022-10-17T00:21:04;41.95;;;22.45;;
35326;SDS011;21436;52.348;20.928;2022-10-17T00:23:33;40.15;;;22.77;;
35326;SDS011;21436;52.348;20.928;2022-10-17T00:26:03;40.75;;;23.00;;
35326;SDS011;21436;52.348;20.928;2022-10-17T00:28:32;47.72;;;25.13;;
35326;SDS011;21436;52.348;20.928;2022-10-17T00:31:00;36.75;;;22.38;;
35326;SDS011;21436;52.348;20.928;2022-10-17T00:33:30;33.88;;;20.92;;
35326;SDS011;21436;52.348;20.928;2022-10-17T00:36:06;41.13;;;22.00;;
35326;SDS011;21436;52.348;20.928;2022-10-17T00:38:36;34.08;;;21.48;;
35326;SDS011;21436;52.348;20.928;2022-10-17T00:41:07;38.13;;;23.17;;
35326;SDS011;21436;52.348;20.928;2022-10-17T00:43:49;44.40;;;24.50;;
35326;SDS011;21436;52.348;20.928;2022-10-17T00:46:24;41.70;;;23.13;;
35326;SDS011;21436;52.348;20.928;2022-10-17T00:48:55;40.35;;;24.67;;
35326;SDS011;21436;52.348;20.928;2022-10-17T00:51:26;41.38;;;24.70;;
35326;SDS011;21436;52.348;20.928;2022-10-17T00:54:13;47.72;;;25.42;;
35326;SDS011;21436;52.348;20.928;2022-10-17T00:56:44;43.25;;;25.55;;
35326;SDS011;21436;52.348;20.928;2022-10-17T00:59:14;40.50;;;24.33;;
35326;SDS011;21436;52.348;20.928;2022-10-17T01:01:50;42.85;;;24.92;;
35326;SDS011;21436;52.348;20.928;2022-10-17T01:04:26;44.95;;;25.95;;
35326;SDS011;21436;52.348;20.928;2022-10-17T01:06:54;40.95;;;24.60;;
35326;SDS011;21436;52.348;20.928;2022-10-17T01:09:23;42.38;;;24.27;;
35326;SDS011;21436;52.348;20.928;2022-10-17T01:32:54;40.33;;;24.50;;
35326;SDS011;21436;52.348;20.928;2022-10-17T01:35:47;40.67;;;25.27;;
35326;SDS011;21436;52.348;20.928;2022-10-17T01:38:46;43.75;;;23.77;;
35326;SDS011;21436;52.348;20.928;2022-10-17T01:41:24;45.50;;;25.17;;
35326;SDS011;21436;52.348;20.928;2022-10-17T01:44:20;53.53;;;30.08;;
35326;SDS011;21436;52.348;20.928;2022-10-17T01:46:53;62.33;;;31.88;;
35326;SDS011;21436;52.348;20.928;2022-10-17T01:49:27;46.28;;;28.58;;
35326;SDS011;21436;52.348;20.928;2022-10-17T01:51:57;51.58;;;29.92;;
35326;SDS011;21436;52.348;20.928;2022-10-17T01:54:31;45.33;;;27.88;;
35326;SDS011;21436;52.348;20.928;2022-10-17T01:57:05;60.05;;;30.30;;
35326;SDS011;21436;52.348;20.928;2022-10-17T01:59:40;42.40;;;25.70;;
35326;SDS011;21436;52.348;20.928;2022-10-17T02:02:10;41.20;;;25.02;;
35326;SDS011;21436;52.348;20.928;2022-10-17T02:04:41;42.70;;;26.73;;
35326;SDS011;21436;52.348;20.928;2022-10-17T02:07:10;40.78;;;26.20;;
35326;SDS011;21436;52.348;20.928;2022-10-17T02:09:39;51.53;;;27.85;;
35326;SDS011;21436;52.348;20.928;2022-10-17T02:17:18;54.65;;;28.65;;
35326;SDS011;21436;52.348;20.928;2022-10-17T02:22:41;50.55;;;28.85;;
35326;SDS011;21436;52.348;20.928;2022-10-17T02:28:20;44.72;;;27.50;;
35326;SDS011;21436;52.348;20.928;2022-10-17T02:30:57;46.03;;;26.90;;
35326;SDS011;21436;52.348;20.928;2022-10-17T02:36:08;47.30;;;27.50;;
35326;SDS011;21436;52.348;20.928;2022-10-17T02:38:41;47.25;;;26.05;;
35326;SDS011;21436;52.348;20.928;2022-10-17T02:41:12;46.05;;;26.67;;
35326;SDS011;21436;52.348;20.928;2022-10-17T02:43:42;45.42;;;27.40;;
35326;SDS011;21436;52.348;20.928;2022-10-17T02:46:12;46.17;;;26.90;;
35326;SDS011;21436;52.348;20.928;2022-10-17T02:48:52;52.47;;;28.80;;
35326;SDS011;21436;52.348;20.928;2022-10-17T02:56:49;50.20;;;27.13;;
35326;SDS011;21436;52.348;20.928;2022-10-17T02:59:21;49.92;;;28.33;;
35326;SDS011;21436;52.348;20.928;2022-10-17T03:01:50;43.38;;;25.85;;
35326;SDS011;21436;52.348;20.928;2022-10-17T03:04:19;47.10;;;27.35;;
35326;SDS011;21436;52.348;20.928;2022-10-17T03:06:47;51.08;;;29.27;;
35326;SDS011;21436;52.348;20.928;2022-10-17T03:09:17;47.58;;;26.60;;
35326;SDS011;21436;52.348;20.928;2022-10-17T03:11:45;47.17;;;26.05;;
35326;SDS011;21436;52.348;20.928;2022-10-17T03:14:14;47.17;;;26.67;;
35326;SDS011;21436;52.348;20.928;2022-10-17T03:16:42;44.60;;;26.08;;
35326;SDS011;21436;52.348;20.928;2022-10-17T03:19:10;51.53;;;29.30;;
35326;SDS011;21436;52.348;20.928;2022-10-17T03:21:39;50.17;;;26.95;;
35326;SDS011;21436;52.348;20.928;2022-10-17T03:24:07;50.78;;;28.35;;
35326;SDS011;21436;52.348;20.928;2022-10-17T03:26:35;47.72;;;27.58;;
35326;SDS011;21436;52.348;20.928;2022-10-17T03:29:03;54.22;;;29.73;;
35326;SDS011;21436;52.348;20.928;2022-10-17T03:31:34;55.00;;;28.90;;
35326;SDS011;21436;52.348;20.928;2022-10-17T03:34:04;63.88;;;32.83;;
35326;SDS011;21436;52.348;20.928;2022-10-17T03:36:33;52.35;;;30.55;;
35326;SDS011;21436;52.348;20.928;2022-10-17T03:39:00;58.65;;;30.02;;
35326;SDS011;21436;52.348;20.928;2022-10-17T03:41:29;50.80;;;28.60;;
35326;SDS011;21436;52.348;20.928;2022-10-17T03:43:57;47.50;;;27.88;;
35326;SDS011;21436;52.348;20.928;2022-10-17T03:46:26;48.70;;;27.90;;
35326;SDS011;21436;52.348;20.928;2022-10-17T03:48:56;52.08;;;26.83;;
35326;SDS011;21436;52.348;20.928;2022-10-17T03:51:25;47.13;;;26.67;;
35326;SDS011;21436;52.348;20.928;2022-10-17T03:53:59;44.30;;;26.20;;
35326;SDS011;21436;52.348;20.928;2022-10-17T03:56:28;65.15;;;33.40;;
35326;SDS011;21436;52.348;20.928;2022-10-17T03:59:02;56.38;;;28.65;;
35326;SDS011;21436;52.348;20.928;2022-10-17T04:01:33;57.42;;;29.35;;
35326;SDS011;21436;52.348;20.928;2022-10-17T04:04:01;54.92;;;30.00;;
35326;SDS011;21436;52.348;20.928;2022-10-17T04:06:33;61.22;;;31.02;;
35326;SDS011;21436;52.348;20.928;2022-10-17T04:09:02;56.22;;;27.95;;
35326;SDS011;21436;52.348;20.928;2022-10-17T04:11:39;51.50;;;28.90;;
35326;SDS011;21436;52.348;20.928;2022-10-17T04:14:08;64.05;;;30.27;;
35326;SDS011;21436;52.348;20.928;2022-10-17T04:16:38;56.65;;;28.30;;
35326;SDS011;21436;52.348;20.928;2022-10-17T04:19:15;54.08;;;28.92;;
35326;SDS011;21436;52.348;20.928;2022-10-17T04:21:46;53.97;;;28.15;;
35326;SDS011;21436;52.348;20.928;2022-10-17T04:24:14;51.70;;;26.65;;
35326;SDS011;21436;52.348;20.928;2022-10-17T04:26:54;67.05;;;30.95;;
35326;SDS011;21436;52.348;20.928;2022-10-17T04:29:26;50.92;;;28.58;;
35326;SDS011;21436;52.348;20.928;2022-10-17T04:32:04;53.80;;;28.02;;
35326;SDS011;21436;52.348;20.928;2022-10-17T04:34:39;52.13;;;28.00;;
35326;SDS011;21436;52.348;20.928;2022-10-17T04:37:07;52.83;;;28.27;;
35326;SDS011;21436;52.348;20.928;2022-10-17T04:39:36;51.80;;;28.92;;
35326;SDS011;21436;52.348;20.928;2022-10-17T04:42:05;55.75;;;29.25;;
35326;SDS011;21436;52.348;20.928;2022-10-17T04:44:33;58.15;;;29.25;;
35326;SDS011;21436;52.348;20.928;2022-10-17T04:47:02;48.38;;;26.55;;
35326;SDS011;21436;52.348;20.928;2022-10-17T04:49:30;52.10;;;27.25;;
35326;SDS011;21436;52.348;20.928;2022-10-17T04:52:07;50.30;;;28.58;;
35326;SDS011;21436;52.348;20.928;2022-10-17T04:54:43;54.65;;;28.15;;
35326;SDS011;21436;52.348;20.928;2022-10-17T04:57:13;57.53;;;30.58;;
35326;SDS011;21436;52.348;20.928;2022-10-17T04:59:48;55.90;;;30.75;;
35326;SDS011;21436;52.348;20.928;2022-10-17T05:02:23;60.60;;;29.67;;
35326;SDS011;21436;52.348;20.928;2022-10-17T05:04:51;57.35;;;28.65;;
35326;SDS011;21436;52.348;20.928;2022-10-17T05:07:20;55.50;;;29.00;;
35326;SDS011;21436;52.348;20.928;2022-10-17T05:10:09;55.33;;;28.88;;
35326;SDS011;21436;52.348;20.928;2022-10-17T05:12:41;61.17;;;36.17;;
35326;SDS011;21436;52.348;20.928;2022-10-17T05:15:09;68.32;;;31.55;;
35326;SDS011;21436;52.348;20.928;2022-10-17T05:17:37;57.53;;;31.02;;
35326;SDS011;21436;52.348;20.928;2022-10-17T05:20:06;60.55;;;30.45;;
35326;SDS011;21436;52.348;20.928;2022-10-17T05:22:35;48.45;;;28.20;;
35326;SDS011;21436;52.348;20.928;2022-10-17T05:25:09;56.00;;;28.88;;
35326;SDS011;21436;52.348;20.928;2022-10-17T05:27:44;52.75;;;27.92;;
35326;SDS011;21436;52.348;20.928;2022-10-17T05:30:14;48.47;;;26.67;;
35326;SDS011;21436;52.348;20.928;2022-10-17T05:32:43;52.40;;;27.95;;
35326;SDS011;21436;52.348;20.928;2022-10-17T05:35:11;48.15;;;28.00;;
35326;SDS011;21436;52.348;20.928;2022-10-17T05:37:41;46.58;;;26.95;;
35326;SDS011;21436;52.348;20.928;2022-10-17T05:40:09;59.60;;;29.75;;
35326;SDS011;21436;52.348;20.928;2022-10-17T05:42:44;58.15;;;29.75;;
35326;SDS011;21436;52.348;20.928;2022-10-17T05:45:16;56.45;;;30.08;;
35326;SDS011;21436;52.348;20.928;2022-10-17T05:47:45;81.32;;;39.03;;
35326;SDS011;21436;52.348;20.928;2022-10-17T05:50:14;117.45;;;52.72;;
35326;SDS011;21436;52.348;20.928;2022-10-17T05:53:06;71.20;;;33.08;;
35326;SDS011;21436;52.348;20.928;2022-10-17T05:55:40;75.22;;;36.30;;
35326;SDS011;21436;52.348;20.928;2022-10-17T05:58:08;65.43;;;33.50;;
35326;SDS011;21436;52.348;20.928;2022-10-17T06:01:00;57.35;;;30.75;;
35326;SDS011;21436;52.348;20.928;2022-10-17T06:03:32;58.67;;;31.60;;
35326;SDS011;21436;52.348;20.928;2022-10-17T06:06:10;68.43;;;34.20;;
35326;SDS011;21436;52.348;20.928;2022-10-17T06:08:42;55.92;;;31.55;;
35326;SDS011;21436;52.348;20.928;2022-10-17T06:11:14;67.28;;;33.70;;
35326;SDS011;21436;52.348;20.928;2022-10-17T06:13:43;69.68;;;35.80;;
35326;SDS011;21436;52.348;20.928;2022-10-17T06:16:17;75.07;;;36.85;;
35326;SDS011;21436;52.348;20.928;2022-10-17T06:18:46;82.50;;;38.20;;
35326;SDS011;21436;52.348;20.928;2022-10-17T06:21:16;85.18;;;40.65;;
35326;SDS011;21436;52.348;20.928;2022-10-17T06:23:51;76.35;;;37.92;;
35326;SDS011;21436;52.348;20.928;2022-10-17T06:26:34;76.32;;;35.67;;
35326;SDS011;21436;52.348;20.928;2022-10-17T06:29:04;65.00;;;33.05;;
35326;SDS011;21436;52.348;20.928;2022-10-17T06:31:37;66.32;;;31.38;;
35326;SDS011;21436;52.348;20.928;2022-10-17T06:34:06;63.17;;;31.10;;
35326;SDS011;21436;52.348;20.928;2022-10-17T06:36:33;63.85;;;29.58;;
35326;SDS011;21436;52.348;20.928;2022-10-17T06:39:03;53.63;;;28.80;;
35326;SDS011;21436;52.348;20.928;2022-10-17T06:41:37;57.17;;;28.13;;
35326;SDS011;21436;52.348;20.928;2022-10-17T06:44:07;49.83;;;28.80;;
35326;SDS011;21436;52.348;20.928;2022-10-17T06:46:58;55.88;;;28.60;;
35326;SDS011;21436;52.348;20.928;2022-10-17T06:49:27;48.97;;;26.60;;
35326;SDS011;21436;52.348;20.928;2022-10-17T06:52:13;49.92;;;27.48;;
35326;SDS011;21436;52.348;20.928;2022-10-17T06:54:51;48.20;;;25.98;;
35326;SDS011;21436;52.348;20.928;2022-10-17T06:57:38;42.00;;;26.70;;
35326;SDS011;21436;52.348;20.928;2022-10-17T07:00:24;55.10;;;27.20;;
35326;SDS011;21436;52.348;20.928;2022-10-17T07:02:55;48.25;;;25.13;;
35326;SDS011;21436;52.348;20.928;2022-10-17T07:05:24;38.55;;;25.52;;
35326;SDS011;21436;52.348;20.928;2022-10-17T07:07:52;45.42;;;26.48;;
35326;SDS011;21436;52.348;20.928;2022-10-17T07:10:21;39.05;;;25.45;;
35326;SDS011;21436;52.348;20.928;2022-10-17T07:12:49;43.13;;;25.77;;
35326;SDS011;21436;52.348;20.928;2022-10-17T07:15:17;40.80;;;25.17;;
35326;SDS011;21436;52.348;20.928;2022-10-17T07:17:47;39.55;;;26.00;;
35326;SDS011;21436;52.348;20.928;2022-10-17T07:20:18;42.60;;;25.90;;
35326;SDS011;21436;52.348;20.928;2022-10-17T07:22:47;37.50;;;23.55;;
35326;SDS011;21436;52.348;20.928;2022-10-17T07:25:16;41.65;;;25.40;;
35326;SDS011;21436;52.348;20.928;2022-10-17T07:27:50;38.83;;;24.15;;
35326;SDS011;21436;52.348;20.928;2022-10-17T07:30:20;39.03;;;24.45;;
35326;SDS011;21436;52.348;20.928;2022-10-17T07:33:02;42.70;;;24.38;;
35326;SDS011;21436;52.348;20.928;2022-10-17T07:35:32;34.42;;;23.13;;
35326;SDS011;21436;52.348;20.928;2022-10-17T07:38:00;38.90;;;23.00;;
35326;SDS011;21436;52.348;20.928;2022-10-17T07:40:28;37.15;;;23.80;;
35326;SDS011;21436;52.348;20.928;2022-10-17T07:42:56;41.90;;;25.00;;
35326;SDS011;21436;52.348;20.928;2022-10-17T07:45:26;37.33;;;23.52;;
35326;SDS011;21436;52.348;20.928;2022-10-17T07:47:55;35.42;;;23.48;;
35326;SDS011;21436;52.348;20.928;2022-10-17T07:50:26;40.00;;;24.63;;
35326;SDS011;21436;52.348;20.928;2022-10-17T07:52:55;33.88;;;23.88;;
35326;SDS011;21436;52.348;20.928;2022-10-17T07:55:24;36.90;;;22.95;;
35326;SDS011;21436;52.348;20.928;2022-10-17T07:57:52;38.08;;;23.17;;
35326;SDS011;21436;52.348;20.928;2022-10-17T08:00:20;32.95;;;22.05;;
35326;SDS011;21436;52.348;20.928;2022-10-17T08:02:48;42.17;;;22.70;;
35326;SDS011;21436;52.348;20.928;2022-10-17T08:05:17;38.92;;;22.98;;
35326;SDS011;21436;52.348;20.928;2022-10-17T08:07:45;36.42;;;23.98;;
35326;SDS011;21436;52.348;20.928;2022-10-17T08:10:14;32.53;;;22.23;;
35326;SDS011;21436;52.348;20.928;2022-10-17T08:12:42;35.28;;;22.50;;
35326;SDS011;21436;52.348;20.928;2022-10-17T08:15:11;34.88;;;22.13;;
35326;SDS011;21436;52.348;20.928;2022-10-17T08:17:39;39.63;;;22.45;;
35326;SDS011;21436;52.348;20.928;2022-10-17T08:20:07;34.90;;;22.95;;
35326;SDS011;21436;52.348;20.928;2022-10-17T08:22:36;35.53;;;22.58;;
35326;SDS011;21436;52.348;20.928;2022-10-17T08:25:05;37.28;;;23.42;;
35326;SDS011;21436;52.348;20.928;2022-10-17T08:27:33;35.58;;;21.73;;
35326;SDS011;21436;52.348;20.928;2022-10-17T08:30:02;41.47;;;23.35;;
35326;SDS011;21436;52.348;20.928;2022-10-17T08:32:30;32.85;;;22.13;;
35326;SDS011;21436;52.348;20.928;2022-10-17T08:34:59;35.28;;;21.08;;
35326;SDS011;21436;52.348;20.928;2022-10-17T08:37:27;34.72;;;21.58;;
35326;SDS011;21436;52.348;20.928;2022-10-17T08:39:58;34.97;;;21.25;;
35326;SDS011;21436;52.348;20.928;2022-10-17T08:47:44;34.20;;;22.33;;
35326;SDS011;21436;52.348;20.928;2022-10-17T08:56:01;30.27;;;20.48;;
35326;SDS011;21436;52.348;20.928;2022-10-17T08:58:41;32.92;;;21.88;;
35326;SDS011;21436;52.348;20.928;2022-10-17T09:06:28;36.45;;;20.50;;
35326;SDS011;21436;52.348;20.928;2022-10-17T09:17:41;37.38;;;21.95;;
35326;SDS011;21436;52.348;20.928;2022-10-17T09:23:15;44.13;;;22.10;;
35326;SDS011;21436;52.348;20.928;2022-10-17T09:25:52;45.88;;;21.63;;
35326;SDS011;21436;52.348;20.928;2022-10-17T09:28:24;43.70;;;21.85;;
35326;SDS011;21436;52.348;20.928;2022-10-17T09:33:46;49.67;;;24.27;;
35326;SDS011;21436;52.348;20.928;2022-10-17T09:36:26;39.33;;;22.92;;
35326;SDS011;21436;52.348;20.928;2022-10-17T09:38:58;40.40;;;21.80;;
35326;SDS011;21436;52.348;20.928;2022-10-17T09:44:15;40.92;;;22.15;;
35326;SDS011;21436;52.348;20.928;2022-10-17T09:49:23;39.45;;;21.70;;
35326;SDS011;21436;52.348;20.928;2022-10-17T09:51:59;51.08;;;22.25;;
35326;SDS011;21436;52.348;20.928;2022-10-17T09:54:32;36.33;;;22.40;;
35326;SDS011;21436;52.348;20.928;2022-10-17T09:57:08;42.65;;;22.67;;
35326;SDS011;21436;52.348;20.928;2022-10-17T09:59:38;33.30;;;21.23;;
35326;SDS011;21436;52.348;20.928;2022-10-17T10:02:13;32.58;;;20.15;;
35326;SDS011;21436;52.348;20.928;2022-10-17T10:04:52;43.60;;;21.60;;
35326;SDS011;21436;52.348;20.928;2022-10-17T10:07:37;32.63;;;20.48;;
35326;SDS011;21436;52.348;20.928;2022-10-17T10:10:21;35.83;;;21.40;;
35326;SDS011;21436;52.348;20.928;2022-10-17T10:13:28;35.17;;;21.45;;
35326;SDS011;21436;52.348;20.928;2022-10-17T10:15:49;37.88;;;21.88;;
35326;SDS011;21436;52.348;20.928;2022-10-17T10:24:04;35.15;;;21.00;;
35326;SDS011;21436;52.348;20.928;2022-10-17T10:26:48;38.95;;;21.05;;
35326;SDS011;21436;52.348;20.928;2022-10-17T10:32:05;33.60;;;19.88;;
35326;SDS011;21436;52.348;20.928;2022-10-17T10:34:35;35.35;;;20.38;;
35326;SDS011;21436;52.348;20.928;2022-10-17T10:37:19;36.90;;;19.80;;
35326;SDS011;21436;52.348;20.928;2022-10-17T10:39:55;38.90;;;18.70;;
35326;SDS011;21436;52.348;20.928;2022-10-17T10:42:33;35.92;;;19.75;;
35326;SDS011;21436;52.348;20.928;2022-10-17T10:45:12;32.53;;;18.92;;
35326;SDS011;21436;52.348;20.928;2022-10-17T10:48:12;28.30;;;18.52;;
35326;SDS011;21436;52.348;20.928;2022-10-17T11:10:54;26.15;;;17.85;;
35326;SDS011;21436;52.348;20.928;2022-10-17T11:13:43;29.88;;;17.27;;
35326;SDS011;21436;52.348;20.928;2022-10-17T11:16:43;24.67;;;16.73;;
35326;SDS011;21436;52.348;20.928;2022-10-17T11:21:58;31.63;;;16.92;;
35326;SDS011;21436;52.348;20.928;2022-10-17T11:27:06;22.45;;;15.10;;
35326;SDS011;21436;52.348;20.928;2022-10-17T11:29:36;25.67;;;16.48;;
35326;SDS011;21436;52.348;20.928;2022-10-17T11:32:14;20.73;;;14.68;;
35326;SDS011;21436;52.348;20.928;2022-10-17T11:34:49;21.98;;;15.85;;
35326;SDS011;21436;52.348;20.928;2022-10-17T11:37:24;30.05;;;15.05;;
35326;SDS011;21436;52.348;20.928;2022-10-17T11:39:57;19.35;;;13.80;;
35326;SDS011;21436;52.348;20.928;2022-10-17T11:45:16;23.38;;;14.57;;
35326;SDS011;21436;52.348;20.928;2022-10-17T11:47:47;27.13;;;13.95;;
35326;SDS011;21436;52.348;20.928;2022-10-17T11:50:34;24.95;;;14.68;;
35326;SDS011;21436;52.348;20.928;2022-10-17T11:53:27;22.92;;;15.30;;
35326;SDS011;21436;52.348;20.928;2022-10-17T11:55:58;23.50;;;14.40;;
35326;SDS011;21436;52.348;20.928;2022-10-17T11:58:35;23.58;;;15.57;;
35326;SDS011;21436;52.348;20.928;2022-10-17T12:09:41;22.98;;;15.00;;
35326;SDS011;21436;52.348;20.928;2022-10-17T12:12:32;33.45;;;14.77;;
35326;SDS011;21436;52.348;20.928;2022-10-17T12:17:54;25.35;;;13.95;;
35326;SDS011;21436;52.348;20.928;2022-10-17T12:20:27;27.83;;;15.30;;
35326;SDS011;21436;52.348;20.928;2022-10-17T12:28:28;28.73;;;15.02;;
35326;SDS011;21436;52.348;20.928;2022-10-17T12:30:59;27.02;;;15.55;;
35326;SDS011;21436;52.348;20.928;2022-10-17T12:33:38;27.55;;;14.70;;
35326;SDS011;21436;52.348;20.928;2022-10-17T12:38:44;25.08;;;15.40;;
35326;SDS011;21436;52.348;20.928;2022-10-17T12:41:51;28.15;;;14.13;;
35326;SDS011;21436;52.348;20.928;2022-10-17T12:46:45;23.40;;;14.77;;
35326;SDS011;21436;52.348;20.928;2022-10-17T12:49:36;23.65;;;14.73;;
35326;SDS011;21436;52.348;20.928;2022-10-17T12:57:49;20.92;;;14.35;;
35326;SDS011;21436;52.348;20.928;2022-10-17T13:00:35;26.77;;;15.35;;
35326;SDS011;21436;52.348;20.928;2022-10-17T13:03:32;22.15;;;14.85;;
35326;SDS011;21436;52.348;20.928;2022-10-17T13:06:04;29.77;;;15.38;;
35326;SDS011;21436;52.348;20.928;2022-10-17T13:08:38;21.90;;;14.67;;
35326;SDS011;21436;52.348;20.928;2022-10-17T13:11:08;22.77;;;14.50;;
35326;SDS011;21436;52.348;20.928;2022-10-17T13:13:44;22.95;;;15.25;;
35326;SDS011;21436;52.348;20.928;2022-10-17T13:19:13;21.88;;;14.25;;
35326;SDS011;21436;52.348;20.928;2022-10-17T13:21:56;23.30;;;15.23;;
35326;SDS011;21436;52.348;20.928;2022-10-17T13:24:37;27.05;;;13.63;;
35326;SDS011;21436;52.348;20.928;2022-10-17T13:29:55;25.88;;;14.70;;
35326;SDS011;21436;52.348;20.928;2022-10-17T13:32:26;24.90;;;14.75;;
35326;SDS011;21436;52.348;20.928;2022-10-17T13:35:04;23.73;;;14.75;;
35326;SDS011;21436;52.348;20.928;2022-10-17T13:37:34;22.52;;;14.88;;
35326;SDS011;21436;52.348;20.928;2022-10-17T13:40:03;22.88;;;14.93;;
35326;SDS011;21436;52.348;20.928;2022-10-17T13:42:52;23.08;;;14.82;;
35326;SDS011;21436;52.348;20.928;2022-10-17T13:48:05;28.70;;;13.90;;
35326;SDS011;21436;52.348;20.928;2022-10-17T13:50:37;25.33;;;14.90;;
35326;SDS011;21436;52.348;20.928;2022-10-17T13:56:03;23.35;;;15.57;;
35326;SDS011;21436;52.348;20.928;2022-10-17T13:58:57;26.83;;;15.70;;
35326;SDS011;21436;52.348;20.928;2022-10-17T14:01:27;23.20;;;15.57;;
35326;SDS011;21436;52.348;20.928;2022-10-17T14:03:56;25.33;;;15.60;;
35326;SDS011;21436;52.348;20.928;2022-10-17T14:06:45;22.30;;;14.95;;
35326;SDS011;21436;52.348;20.928;2022-10-17T14:09:27;30.80;;;16.03;;
35326;SDS011;21436;52.348;20.928;2022-10-17T14:12:01;25.92;;;14.45;;
35326;SDS011;21436;52.348;20.928;2022-10-17T14:14:33;25.63;;;14.85;;
35326;SDS011;21436;52.348;20.928;2022-10-17T14:17:23;28.25;;;15.57;;
35326;SDS011;21436;52.348;20.928;2022-10-17T14:19:58;37.78;;;15.25;;
35326;SDS011;21436;52.348;20.928;2022-10-17T14:22:51;26.52;;;15.25;;
35326;SDS011;21436;52.348;20.928;2022-10-17T14:25:39;25.08;;;14.73;;
35326;SDS011;21436;52.348;20.928;2022-10-17T14:30:42;24.67;;;14.65;;
35326;SDS011;21436;52.348;20.928;2022-10-17T14:33:25;23.13;;;14.95;;
35326;SDS011;21436;52.348;20.928;2022-10-17T14:35:56;24.38;;;15.07;;
35326;SDS011;21436;52.348;20.928;2022-10-17T14:38:26;24.08;;;14.70;;
35326;SDS011;21436;52.348;20.928;2022-10-17T14:44:06;27.67;;;15.15;;
35326;SDS011;21436;52.348;20.928;2022-10-17T14:47:02;29.40;;;14.52;;
35326;SDS011;21436;52.348;20.928;2022-10-17T14:52:57;31.95;;;15.05;;
35326;SDS011;21436;52.348;20.928;2022-10-17T14:55:30;29.50;;;16.42;;
35326;SDS011;21436;52.348;20.928;2022-10-17T14:58:00;29.10;;;15.85;;
35326;SDS011;21436;52.348;20.928;2022-10-17T15:00:29;24.50;;;16.10;;
35326;SDS011;21436;52.348;20.928;2022-10-17T15:02:58;29.52;;;15.75;;
35326;SDS011;21436;52.348;20.928;2022-10-17T15:05:26;26.25;;;16.13;;
35326;SDS011;21436;52.348;20.928;2022-10-17T15:07:54;30.02;;;16.05;;
35326;SDS011;21436;52.348;20.928;2022-10-17T15:10:25;38.75;;;16.60;;
35326;SDS011;21436;52.348;20.928;2022-10-17T15:12:55;46.17;;;16.95;;
35326;SDS011;21436;52.348;20.928;2022-10-17T15:15:42;55.10;;;16.52;;
35326;SDS011;21436;52.348;20.928;2022-10-17T15:18:11;58.72;;;18.33;;
35326;SDS011;21436;52.348;20.928;2022-10-17T15:20:41;54.08;;;17.83;;
35326;SDS011;21436;52.348;20.928;2022-10-17T15:23:09;31.50;;;17.02;;
35326;SDS011;21436;52.348;20.928;2022-10-17T15:25:37;35.10;;;17.98;;
35326;SDS011;21436;52.348;20.928;2022-10-17T15:28:06;31.27;;;17.83;;
35326;SDS011;21436;52.348;20.928;2022-10-17T15:30:35;34.58;;;17.50;;
35326;SDS011;21436;52.348;20.928;2022-10-17T15:33:04;29.77;;;18.27;;
35326;SDS011;21436;52.348;20.928;2022-10-17T15:35:33;31.95;;;18.25;;
35326;SDS011;21436;52.348;20.928;2022-10-17T15:38:02;28.88;;;17.77;;
35326;SDS011;21436;52.348;20.928;2022-10-17T15:40:33;32.92;;;18.67;;
35326;SDS011;21436;52.348;20.928;2022-10-17T15:43:01;59.80;;;20.08;;
35326;SDS011;21436;52.348;20.928;2022-10-17T15:45:30;86.28;;;20.13;;
35326;SDS011;21436;52.348;20.928;2022-10-17T15:48:03;78.20;;;19.83;;
35326;SDS011;21436;52.348;20.928;2022-10-17T15:50:33;100.30;;;20.92;;
35326;SDS011;21436;52.348;20.928;2022-10-17T15:53:03;44.22;;;19.15;;
35326;SDS011;21436;52.348;20.928;2022-10-17T15:55:32;31.52;;;18.38;;
35326;SDS011;21436;52.348;20.928;2022-10-17T15:58:01;31.50;;;18.20;;
35326;SDS011;21436;52.348;20.928;2022-10-17T16:00:30;63.00;;;19.00;;
35326;SDS011;21436;52.348;20.928;2022-10-17T16:02:58;50.05;;;19.70;;
35326;SDS011;21436;52.348;20.928;2022-10-17T16:05:27;33.40;;;19.45;;
35326;SDS011;21436;52.348;20.928;2022-10-17T16:07:56;34.53;;;19.35;;
35326;SDS011;21436;52.348;20.928;2022-10-17T16:10:25;28.10;;;18.17;;
35326;SDS011;21436;52.348;20.928;2022-10-17T16:12:53;71.88;;;18.90;;
35326;SDS011;21436;52.348;20.928;2022-10-17T16:15:25;43.35;;;20.27;;
35326;SDS011;21436;52.348;20.928;2022-10-17T16:17:54;33.92;;;19.13;;
35326;SDS011;21436;52.348;20.928;2022-10-17T16:20:25;37.63;;;20.30;;
35326;SDS011;21436;52.348;20.928;2022-10-17T16:22:54;37.70;;;20.67;;
35326;SDS011;21436;52.348;20.928;2022-10-17T16:25:27;33.47;;;18.80;;
35326;SDS011;21436;52.348;20.928;2022-10-17T16:27:58;55.20;;;18.48;;
35326;SDS011;21436;52.348;20.928;2022-10-17T16:30:28;42.65;;;20.20;;
35326;SDS011;21436;52.348;20.928;2022-10-17T16:32:57;44.47;;;19.00;;
35326;SDS011;21436;52.348;20.928;2022-10-17T16:35:26;74.35;;;22.08;;
35326;SDS011;21436;52.348;20.928;2022-10-17T16:38:03;55.97;;;21.80;;
35326;SDS011;21436;52.348;20.928;2022-10-17T16:40:32;47.75;;;20.88;;
35326;SDS011;21436;52.348;20.928;2022-10-17T16:43:00;32.80;;;19.40;;
35326;SDS011;21436;52.348;20.928;2022-10-17T16:45:28;34.53;;;20.40;;
35326;SDS011;21436;52.348;20.928;2022-10-17T16:47:57;36.75;;;20.38;;
35326;SDS011;21436;52.348;20.928;2022-10-17T16:50:26;34.67;;;19.58;;
35326;SDS011;21436;52.348;20.928;2022-10-17T16:52:55;33.50;;;19.35;;
35326;SDS011;21436;52.348;20.928;2022-10-17T16:55:23;37.05;;;21.15;;
35326;SDS011;21436;52.348;20.928;2022-10-17T16:57:52;76.22;;;21.77;;
35326;SDS011;21436;52.348;20.928;2022-10-17T17:00:21;46.55;;;20.58;;
35326;SDS011;21436;52.348;20.928;2022-10-17T17:02:49;43.08;;;20.05;;
35326;SDS011;21436;52.348;20.928;2022-10-17T17:05:17;33.58;;;19.33;;
35326;SDS011;21436;52.348;20.928;2022-10-17T17:07:45;35.25;;;19.77;;
35326;SDS011;21436;52.348;20.928;2022-10-17T17:10:15;34.83;;;20.77;;
35326;SDS011;21436;52.348;20.928;2022-10-17T17:12:43;39.97;;;20.83;;
35326;SDS011;21436;52.348;20.928;2022-10-17T17:15:11;31.88;;;19.77;;
35326;SDS011;21436;52.348;20.928;2022-10-17T17:17:40;37.72;;;20.90;;
35326;SDS011;21436;52.348;20.928;2022-10-17T17:20:19;34.47;;;20.17;;
35326;SDS011;21436;52.348;20.928;2022-10-17T17:22:48;41.22;;;20.77;;